Time;durP1;ratioP1;P1;durP2;ratioP2;P2;SDS_P1;SDS_P2;PMS_P1;PMS_P2;Temp;Humidity;BMP_temperature;BMP_pressure;BME280_temperature;BME280_humidity;BME280_pressure;Samples;Min_cycle;Max_cycle;Signal;HPM_P1;HPM_P2
2022/12/25 00:02:16;;;;;;;37.47;20.57;;;5.00;95.60;;;;;;3277423;26;20261;-89
2022/12/25 00:04:45;;;;;;;41.67;22.20;;;4.80;95.50;;;;;;4996404;28;20198;-92
2022/12/25 00:07:11;;;;;;;146.03;23.00;;;4.70;95.50;;;;;;4997216;28;20210;-91
2022/12/25 00:09:36;;;;;;;25.07;22.10;;;4.60;95.50;;;;;;4996927;28;20178;-91
2022/12/25 00:12:02;;;;;;;31.80;23.87;;;4.40;95.40;;;;;;4998118;28;20171;-92
2022/12/25 00:14:27;;;;;;;30.77;25.10;;;4.50;95.50;;;;;;5000391;28;20193;-92
2022/12/25 00:16:53;;;;;;;46.97;25.20;;;4.50;95.60;;;;;;5210760;23;20729;-92
2022/12/25 00:19:18;;;;;;;37.13;25.50;;;4.60;95.60;;;;;;5017144;28;20193;-92
2022/12/25 00:21:44;;;;;;;43.23;26.03;;;4.50;95.60;;;;;;5022421;28;20165;-88
2022/12/25 00:24:24;;;;;;;47.07;29.47;;;4.40;95.60;;;;;;5017020;28;20213;-92
2022/12/25 00:26:50;;;;;;;52.37;33.27;;;4.30;95.60;;;;;;5002181;28;20235;-91
2022/12/25 00:29:19;;;;;;;43.53;33.63;;;4.40;95.70;;;;;;5002736;28;20181;-91
2022/12/25 00:31:49;;;;;;;149.53;34.80;;;4.40;95.70;;;;;;5002184;28;20173;-92
2022/12/25 00:34:17;;;;;;;229.30;35.50;;;4.40;95.70;;;;;;5004296;28;20190;-92
2022/12/25 00:36:43;;;;;;;260.67;36.13;;;4.30;95.60;;;;;;5004516;28;20199;-93
2022/12/25 01:02:25;;;;;;;37.87;33.90;;;3.60;95.50;;;;;;5034049;28;20266;-93
2022/12/25 01:04:53;;;;;;;46.73;37.17;;;3.60;95.50;;;;;;5031088;28;20189;-86
2022/12/25 01:07:20;;;;;;;43.80;37.83;;;3.70;95.60;;;;;;5024168;28;20276;-89
2022/12/25 01:12:32;;;;;;;45.10;36.33;;;3.70;95.60;;;;;;5036183;28;20192;-93
2022/12/25 01:14:58;;;;;;;49.10;37.60;;;3.70;95.60;;;;;;5009163;28;20232;-92
2022/12/25 01:17:24;;;;;;;58.17;37.07;;;3.70;95.60;;;;;;4998869;28;20662;-92
2022/12/25 01:19:49;;;;;;;103.27;42.87;;;3.60;95.60;;;;;;4998417;28;20667;-92
2022/12/25 01:22:15;;;;;;;227.43;46.13;;;3.50;95.50;;;;;;4998215;28;20558;-92
2022/12/25 01:24:42;;;;;;;191.47;46.37;;;3.30;95.50;;;;;;4998357;28;20196;-92
2022/12/25 01:27:08;;;;;;;177.20;47.23;;;3.20;95.50;;;;;;4999048;28;20189;-93
2022/12/25 01:29:46;;;;;;;151.10;47.23;;;3.10;95.50;;;;;;5001824;28;20246;-92
2022/12/25 01:32:12;;;;;;;170.30;48.77;;;3.20;95.70;;;;;;5009050;28;20233;-92
2022/12/25 01:34:38;;;;;;;116.17;43.20;;;3.20;95.70;;;;;;5020791;28;20207;-92
2022/12/25 01:37:04;;;;;;;79.63;36.27;;;3.30;95.70;;;;;;5021664;28;20168;-92
2022/12/25 01:39:29;;;;;;;72.77;31.10;;;3.30;95.80;;;;;;5014282;28;20197;-92
2022/12/25 01:41:55;;;;;;;50.43;28.67;;;3.30;95.80;;;;;;5006722;28;20271;-92
2022/12/25 01:44:46;;;;;;;42.60;32.90;;;3.30;95.90;;;;;;5000510;28;20197;-93
2022/12/25 01:47:35;;;;;;;47.43;32.23;;;3.40;96.00;;;;;;5000594;28;20204;-92
2022/12/25 01:50:19;;;;;;;38.63;31.43;;;3.60;96.10;;;;;;5002278;28;20176;-92
2022/12/25 01:52:46;;;;;;;51.07;27.63;;;3.70;96.10;;;;;;4999347;28;20180;-92
2022/12/25 01:58:20;;;;;;;49.07;26.63;;;3.80;96.30;;;;;;5237616;22;20242;-92
2022/12/25 02:01:02;;;;;;;50.07;29.23;;;3.80;96.30;;;;;;5039204;28;20187;-92
2022/12/25 03:06:41;;;;;;;115.00;42.27;;;3.10;96.50;;;;;;4856807;26;20247;-91
2022/12/25 06:03:37;;;;;;;84.63;60.53;;;4.70;97.10;;;;;;5039140;28;20261;-92
2022/12/25 06:07:07;;;;;;;91.73;61.73;;;4.60;97.10;;;;;;5000407;28;20163;-92
2022/12/25 06:24:39;;;;;;;80.80;64.63;;;4.40;97.10;;;;;;5258156;22;20235;-92
2022/12/25 06:27:05;;;;;;;95.30;64.97;;;4.30;97.10;;;;;;5040235;28;20138;-92
2022/12/25 06:30:17;;;;;;;91.33;66.13;;;4.30;97.10;;;;;;5040064;28;20149;-93
2022/12/25 06:32:52;;;;;;;98.13;67.27;;;4.30;97.10;;;;;;5040116;28;20225;-92
2022/12/25 06:35:37;;;;;;;87.50;67.53;;;4.30;97.10;;;;;;5040057;28;20145;-92
2022/12/25 06:38:06;;;;;;;78.93;67.33;;;4.30;97.10;;;;;;5040095;28;20161;-92
2022/12/25 06:40:37;;;;;;;87.73;68.10;;;4.30;97.10;;;;;;5039915;28;20181;-91
2022/12/25 06:43:12;;;;;;;86.10;67.70;;;4.30;97.10;;;;;;5039985;28;20152;-91
2022/12/25 06:45:51;;;;;;;87.37;70.50;;;4.30;97.10;;;;;;5039903;28;20172;-91
2022/12/25 06:48:33;;;;;;;81.43;65.20;;;4.30;97.10;;;;;;5039771;28;20177;-91
2022/12/25 06:56:19;;;;;;;81.80;66.67;;;4.50;97.10;;;;;;5474432;22;20220;-92
2022/12/25 06:58:53;;;;;;;80.47;64.23;;;4.60;97.20;;;;;;5039880;28;20169;-92
2022/12/25 07:01:58;;;;;;;;;;;;;;;;;;;;;
2022/12/25 07:04:38;;;;;;;86.77;63.10;;;4.60;97.20;;;;;;5038770;28;20190;-93
2022/12/25 07:07:24;;;;;;;90.80;64.20;;;4.60;97.20;;;;;;5038346;28;20168;-92
2022/12/25 07:09:56;;;;;;;74.33;59.60;;;4.60;97.20;;;;;;5038460;28;20172;-92
2022/12/25 07:12:45;;;;;;;78.00;57.77;;;4.70;97.20;;;;;;5038039;28;20264;-92
2022/12/25 07:15:18;;;;;;;85.17;55.77;;;4.70;97.20;;;;;;5037953;28;20247;-91
2022/12/25 07:18:04;;;;;;;87.53;54.60;;;4.70;97.20;;;;;;5038081;28;20181;-92
2022/12/25 07:21:06;;;;;;;67.20;55.13;;;4.80;97.20;;;;;;5037935;28;20170;-90
2022/12/25 07:24:05;;;;;;;;;;;;;;;;;;;;;
2022/12/25 07:26:58;;;;;;;;;;;;;;;;;;;;;
2022/12/25 07:29:27;;;;;;;64.93;53.70;;;4.90;97.20;;;;;;5038692;28;20215;-91
2022/12/25 07:32:46;;;;;;;81.83;54.57;;;4.90;97.20;;;;;;5038089;28;20184;-91
2022/12/25 07:42:58;;;;;;;78.63;56.20;;;5.10;97.20;;;;;;5921343;22;21024;-91
2022/12/25 07:45:24;;;;;;;77.13;56.27;;;5.20;97.30;;;;;;5031582;28;20209;-91
2022/12/25 07:47:49;;;;;;;81.47;59.33;;;5.20;97.30;;;;;;5022874;28;20219;-92
2022/12/25 07:50:15;;;;;;;69.87;57.33;;;5.20;97.30;;;;;;5030014;28;20201;-91
2022/12/25 07:52:48;;;;;;;70.70;63.43;;;5.30;97.30;;;;;;5028372;28;20277;-92
2022/12/25 08:05:38;;;;;;;80.20;66.70;;;5.20;97.20;;;;;;4307182;26;20205;-91
2022/12/25 08:08:07;;;;;;;87.63;70.57;;;5.30;97.30;;;;;;5036548;28;20212;-92
2022/12/25 08:23:35;;;;;;;84.57;67.50;;;5.50;97.30;;;;;;5089097;22;20237;-93
2022/12/25 08:52:44;;;;;;;73.33;56.77;;;5.70;97.30;;;;;;5144849;22;20220;-93
2022/12/25 10:08:11;;;;;;;57.87;51.83;;;6.60;97.30;;;;;;4619260;22;20240;-93
2022/12/25 10:10:52;;;;;;;59.60;53.20;;;6.60;97.30;;;;;;5000834;28;20189;-91
2022/12/25 10:14:02;;;;;;;59.20;51.63;;;6.70;97.30;;;;;;5003343;28;20241;-91
2022/12/25 10:16:41;;;;;;;62.27;51.43;;;6.70;97.30;;;;;;4977088;28;20182;-92
2022/12/25 10:19:51;;;;;;;62.50;50.67;;;6.70;97.30;;;;;;4981848;28;20190;-90
2022/12/25 10:22:32;;;;;;;62.17;51.90;;;6.70;97.30;;;;;;4978345;28;20183;-92
2022/12/25 10:24:59;;;;;;;73.23;50.63;;;6.70;97.30;;;;;;4980836;28;20190;-93
2022/12/25 10:27:38;;;;;;;55.40;49.33;;;6.80;97.30;;;;;;4996634;28;20194;-92
2022/12/25 10:30:20;;;;;;;57.47;51.30;;;6.80;97.30;;;;;;4978140;28;20179;-92
2022/12/25 10:32:46;;;;;;;57.70;51.27;;;6.80;97.30;;;;;;4981761;28;20215;-92
2022/12/25 10:35:15;;;;;;;60.43;51.63;;;6.80;97.30;;;;;;4982446;28;20191;-91
2022/12/25 10:37:43;;;;;;;65.23;50.07;;;6.80;97.30;;;;;;4980372;28;20178;-92
2022/12/25 10:40:42;;;;;;;61.77;48.00;;;6.80;97.30;;;;;;4974611;28;20197;-92
2022/12/25 10:43:22;;;;;;;60.00;54.03;;;6.80;97.30;;;;;;4973368;28;20187;-93
2022/12/25 10:45:54;;;;;;;64.30;54.40;;;6.80;97.30;;;;;;5491610;23;20224;-92
2022/12/25 10:49:01;;;;;;;59.80;53.73;;;6.90;97.30;;;;;;5038349;28;20209;-90
2022/12/25 10:52:08;;;;;;;68.90;52.80;;;6.90;97.30;;;;;;5028701;28;20200;-92
2022/12/25 10:55:07;;;;;;;59.13;53.17;;;6.80;97.30;;;;;;5032455;28;20268;-92
2022/12/25 10:57:44;;;;;;;62.13;54.47;;;6.90;97.30;;;;;;5033553;28;20611;-92
2022/12/25 11:00:27;;;;;;;60.27;54.13;;;6.90;97.30;;;;;;5029961;28;20196;-92
2022/12/25 11:02:53;;;;;;;65.80;58.13;;;6.90;97.30;;;;;;5025876;28;20165;-92
2022/12/25 11:05:33;;;;;;;63.73;57.63;;;6.90;97.30;;;;;;5026172;28;20201;-91
2022/12/25 11:08:02;;;;;;;65.37;58.50;;;6.90;97.30;;;;;;5026521;28;20213;-92
2022/12/25 11:10:35;;;;;;;63.93;57.53;;;7.00;97.30;;;;;;5023356;28;20596;-92
2022/12/25 11:13:04;;;;;;;75.47;61.33;;;6.90;97.30;;;;;;5027726;28;20169;-92
2022/12/25 11:15:46;;;;;;;67.27;60.17;;;6.90;97.30;;;;;;5025912;28;20291;-93
2022/12/25 11:18:34;;;;;;;71.03;63.50;;;7.00;97.30;;;;;;5025111;28;20170;-93
2022/12/25 11:21:13;;;;;;;78.90;70.27;;;7.00;97.30;;;;;;5020238;28;20189;-92
2022/12/25 11:23:47;;;;;;;77.23;69.47;;;7.00;97.30;;;;;;5026404;28;20177;-92
2022/12/25 11:26:36;;;;;;;78.67;70.47;;;7.00;97.30;;;;;;5029813;28;20158;-92
2022/12/25 11:29:04;;;;;;;77.47;69.60;;;7.00;97.30;;;;;;5027259;28;20201;-92
2022/12/25 11:31:39;;;;;;;75.90;68.50;;;7.10;97.30;;;;;;5026622;28;20181;-91
2022/12/25 11:34:50;;;;;;;71.20;64.40;;;7.10;97.40;;;;;;5030536;28;20180;-92
2022/12/25 11:37:36;;;;;;;74.70;67.73;;;7.10;97.40;;;;;;5035412;28;20173;-89
2022/12/25 11:44:26;;;;;;;;;;;;;;;;;;;;;
2022/12/25 11:47:23;;;;;;;73.73;61.60;;;7.10;97.30;;;;;;5027151;28;20268;-93
2022/12/25 11:50:13;;;;;;;72.63;58.97;;;7.20;97.40;;;;;;5021072;28;20205;-92
2022/12/25 11:52:44;;;;;;;66.17;59.27;;;7.20;97.40;;;;;;5026481;28;20160;-93
2022/12/25 11:55:41;;;;;;;64.47;57.87;;;7.20;97.40;;;;;;5030187;28;20201;-92
2022/12/25 11:59:06;;;;;;;62.67;56.20;;;7.20;97.40;;;;;;5031482;28;20177;-93
2022/12/25 12:01:55;;;;;;;61.60;55.80;;;7.20;97.40;;;;;;4978529;28;20190;-92
2022/12/25 12:04:30;;;;;;;65.73;57.60;;;7.20;97.40;;;;;;5037369;28;20197;-90
2022/12/25 12:07:17;;;;;;;62.63;56.37;;;7.30;97.40;;;;;;5034981;28;20169;-91
2022/12/25 12:10:04;;;;;;;64.60;58.07;;;7.30;97.40;;;;;;5034164;28;20185;-92
2022/12/25 12:12:39;;;;;;;65.83;59.60;;;7.30;97.40;;;;;;5034449;28;20207;-93
2022/12/25 12:15:38;;;;;;;67.87;60.63;;;7.30;97.40;;;;;;5039876;22;20229;-91
2022/12/25 12:18:43;;;;;;;67.83;61.13;;;7.30;97.40;;;;;;5024823;28;20603;-92
2022/12/25 12:21:24;;;;;;;67.47;60.97;;;7.30;97.40;;;;;;4981267;28;20242;-92
2022/12/25 12:24:04;;;;;;;70.20;63.27;;;7.30;97.40;;;;;;5033869;28;20189;-91
2022/12/25 12:26:37;;;;;;;70.83;63.77;;;7.40;97.40;;;;;;5031146;28;20176;-93
2022/12/25 12:29:09;;;;;;;82.65;74.88;;;7.40;97.40;;;;;;5098004;22;20478;-90
2022/12/25 12:31:47;;;;;;;99.68;91.20;;;7.30;97.40;;;;;;5029844;28;20397;-90
2022/12/25 12:34:24;;;;;;;123.45;114.10;;;7.40;97.40;;;;;;5034644;28;20393;-92
2022/12/25 12:36:55;;;;;;;144.93;134.40;;;7.40;97.40;;;;;;5023301;28;20420;-92
2022/12/25 12:39:35;;;;;;;159.80;148.20;;;7.30;97.30;;;;;;5023814;28;20380;-92
2022/12/25 12:42:01;;;;;;;181.45;168.75;;;7.30;97.30;;;;;;5028054;28;20393;-92
2022/12/25 12:44:32;;;;;;;205.02;191.35;;;7.30;97.30;;;;;;5028608;28;20389;-92
2022/12/25 12:46:58;;;;;;;220.65;206.45;;;7.30;97.30;;;;;;5032802;28;20393;-91
2022/12/25 12:49:26;;;;;;;250.70;234.73;;;7.40;97.30;;;;;;5034614;28;20511;-92
2022/12/25 12:52:25;;;;;;;244.52;229.30;;;7.30;97.30;;;;;;5030286;28;20409;-91
2022/12/25 12:55:00;;;;;;;234.80;220.07;;;7.50;97.40;;;;;;5026309;28;20249;-92
2022/12/25 12:57:30;;;;;;;212.00;198.30;;;7.40;97.30;;;;;;5025260;28;20165;-93
2022/12/25 12:59:57;;;;;;;202.77;190.30;;;7.50;97.30;;;;;;5023892;28;20173;-92
2022/12/25 13:02:51;;;;;;;200.33;188.00;;;7.50;97.30;;;;;;5022126;28;20216;-93
2022/12/25 13:05:44;;;;;;;204.77;192.53;;;7.50;97.30;;;;;;5010573;28;20208;-92
2022/12/25 13:08:55;;;;;;;193.70;181.07;;;7.40;97.20;;;;;;5023018;28;20198;-92
2022/12/25 13:11:27;;;;;;;180.97;169.17;;;7.40;97.30;;;;;;5027755;28;20185;-92
2022/12/25 13:13:55;;;;;;;171.73;160.40;;;7.50;97.30;;;;;;5031248;28;20241;-93
2022/12/25 13:16:26;;;;;;;168.60;156.63;;;7.40;97.30;;;;;;5030207;28;20181;-92
2022/12/25 13:18:54;;;;;;;163.53;152.93;;;7.40;97.30;;;;;;5022110;28;20177;-93
2022/12/25 13:21:25;;;;;;;165.10;153.63;;;7.40;97.20;;;;;;5025218;28;20580;-92
2022/12/25 13:24:03;;;;;;;162.30;151.40;;;7.40;97.20;;;;;;5026919;28;20185;-93
2022/12/25 13:26:29;;;;;;;161.77;150.60;;;7.40;97.20;;;;;;5031985;28;20173;-93
2022/12/25 13:28:55;;;;;;;161.70;151.20;;;7.50;97.20;;;;;;5031365;28;20635;-93
2022/12/25 13:31:24;;;;;;;165.97;154.80;;;7.50;97.20;;;;;;5027313;28;20181;-93
2022/12/25 13:34:05;;;;;;;161.80;150.87;;;7.50;97.20;;;;;;5026270;28;20231;-93
2022/12/25 13:36:37;;;;;;;155.03;145.50;;;7.50;97.20;;;;;;5033726;28;20184;-93
2022/12/25 13:39:07;;;;;;;152.50;142.10;;;7.50;97.20;;;;;;5034847;28;20181;-93
2022/12/25 13:44:41;;;;;;;145.77;135.87;;;7.50;97.20;;;;;;5031677;28;20228;-92
2022/12/25 13:47:15;;;;;;;148.70;138.40;;;7.50;97.10;;;;;;5032684;28;20165;-93
2022/12/25 13:49:40;;;;;;;149.87;138.47;;;7.50;97.10;;;;;;5032943;28;20197;-92
2022/12/25 13:52:15;;;;;;;164.13;150.70;;;7.40;97.10;;;;;;5029060;28;20204;-93
2022/12/25 14:08:02;;;;;;;146.23;136.00;;;7.50;97.10;;;;;;5041691;28;20237;-93
2022/12/25 14:10:37;;;;;;;147.60;137.30;;;7.50;97.10;;;;;;5026651;28;20749;-93
2022/12/25 14:13:12;;;;;;;145.97;136.33;;;7.50;97.00;;;;;;5025359;28;20263;-94
2022/12/25 14:15:39;;;;;;;145.77;135.53;;;7.50;97.00;;;;;;5228573;22;20248;-94
2022/12/25 14:18:05;;;;;;;149.73;138.77;;;7.50;97.00;;;;;;5020415;28;20185;-94
2022/12/25 14:20:44;;;;;;;145.53;135.63;;;7.50;97.00;;;;;;5023597;28;20532;-93
2022/12/25 14:24:08;;;;;;;;;;;;;;;;;;;;;
2022/12/25 14:26:34;;;;;;;150.90;140.57;;;7.50;97.00;;;;;;4988971;28;20649;-93
2022/12/25 14:29:08;;;;;;;153.17;142.07;;;7.50;97.00;;;;;;5006904;28;20209;-94
2022/12/25 14:31:37;;;;;;;148.50;138.33;;;7.50;97.00;;;;;;5067236;22;20877;-92
2022/12/25 14:34:32;;;;;;;148.30;138.27;;;7.50;97.00;;;;;;5027302;28;20197;-94
2022/12/25 14:36:59;;;;;;;151.70;141.13;;;7.50;97.00;;;;;;5022834;28;20202;-93
2022/12/25 14:39:36;;;;;;;159.63;148.27;;;7.50;97.00;;;;;;5018633;28;20666;-94
2022/12/25 14:42:22;;;;;;;151.93;141.87;;;7.50;97.00;;;;;;5016737;28;20185;-93
2022/12/25 14:44:55;;;;;;;158.87;147.90;;;7.50;96.90;;;;;;5016905;28;20212;-92
2022/12/25 14:47:21;;;;;;;151.07;140.50;;;7.50;97.00;;;;;;5017413;28;20177;-94
2022/12/25 14:49:47;;;;;;;154.93;144.77;;;7.50;97.00;;;;;;5023844;28;20305;-93
2022/12/25 14:52:22;;;;;;;153.27;142.70;;;7.40;96.90;;;;;;5029734;28;20192;-93
2022/12/25 14:54:51;;;;;;;157.47;147.30;;;7.40;96.90;;;;;;5026206;28;20196;-92
2022/12/25 14:57:30;;;;;;;160.70;149.43;;;7.40;96.90;;;;;;5026606;28;20228;-92
2022/12/25 14:59:57;;;;;;;162.00;151.37;;;7.40;96.90;;;;;;5023211;28;20266;-92
2022/12/25 15:02:23;;;;;;;161.13;151.07;;;7.50;96.90;;;;;;5029593;28;20173;-92
2022/12/25 15:04:49;;;;;;;161.87;151.23;;;7.40;96.90;;;;;;5114665;22;20729;-93
2022/12/25 15:07:26;;;;;;;162.87;152.67;;;7.40;96.90;;;;;;5020598;28;20662;-93
2022/12/25 15:09:52;;;;;;;154.97;144.53;;;7.40;96.90;;;;;;5031529;28;20204;-93
2022/12/25 15:12:26;;;;;;;159.47;149.10;;;7.30;96.80;;;;;;5025276;28;20188;-94
2022/12/25 15:14:52;;;;;;;152.33;142.87;;;7.30;96.80;;;;;;5028212;28;20212;-93
2022/12/25 15:17:27;;;;;;;149.43;140.20;;;7.30;96.80;;;;;;5023769;28;20180;-93
2022/12/25 15:19:56;;;;;;;140.47;130.27;;;7.40;96.80;;;;;;5032423;28;20177;-94
2022/12/25 15:22:22;;;;;;;139.57;129.83;;;7.50;96.90;;;;;;5031605;28;20181;-93
2022/12/25 15:24:48;;;;;;;139.50;129.63;;;7.50;96.90;;;;;;5028151;28;20243;-93
2022/12/25 15:27:17;;;;;;;137.05;128.05;;;7.50;96.80;;;;;;5032436;28;20177;-93
2022/12/25 15:29:44;;;;;;;133.27;124.20;;;7.50;96.80;;;;;;5030133;28;20219;-93
2022/12/25 15:32:17;;;;;;;132.97;123.33;;;7.50;96.80;;;;;;5027908;28;20196;-93
2022/12/25 15:34:45;;;;;;;127.57;118.80;;;7.40;96.70;;;;;;5030747;28;20706;-93
2022/12/25 15:37:10;;;;;;;127.17;118.33;;;7.50;96.70;;;;;;5033914;28;20188;-93
2022/12/25 15:39:42;;;;;;;129.70;120.70;;;7.50;96.70;;;;;;5035233;28;20178;-93
2022/12/25 15:42:17;;;;;;;125.37;116.20;;;7.50;96.70;;;;;;5040822;28;20244;-93
2022/12/25 15:44:44;;;;;;;121.50;113.57;;;7.50;96.70;;;;;;5039313;28;20193;-93
2022/12/25 15:47:11;;;;;;;121.80;112.53;;;7.50;96.60;;;;;;5033906;28;20594;-92
2022/12/25 15:49:37;;;;;;;127.23;117.67;;;7.40;96.60;;;;;;5023254;28;20300;-92
2022/12/25 15:52:04;;;;;;;126.60;117.47;;;7.50;96.60;;;;;;5019305;28;20659;-92
2022/12/25 16:12:37;;;;;;;122.50;113.07;;;7.30;96.50;;;;;;5052936;28;20226;-92
2022/12/25 16:15:04;;;;;;;122.63;113.00;;;7.30;96.40;;;;;;5021968;28;20245;-91
2022/12/25 16:17:32;;;;;;;123.70;114.70;;;7.30;96.50;;;;;;5025030;28;20172;-92
2022/12/25 16:22:52;;;;;;;120.53;112.17;;;7.30;96.50;;;;;;5248625;22;20248;-92
2022/12/25 16:25:31;;;;;;;123.20;114.07;;;7.30;96.50;;;;;;5034712;28;20205;-93
2022/12/25 17:02:23;;;;;;;132.37;121.93;;;7.10;96.40;;;;;;1352503;26;20215;-93
2022/12/25 17:04:49;;;;;;;127.57;118.53;;;7.10;96.40;;;;;;4997720;28;20187;-92
2022/12/25 17:07:16;;;;;;;131.63;121.67;;;7.10;96.40;;;;;;5000367;28;20177;-93
2022/12/25 17:09:42;;;;;;;131.43;121.97;;;7.10;96.40;;;;;;4989096;28;20246;-92
2022/12/25 17:12:08;;;;;;;133.90;123.23;;;7.10;96.40;;;;;;4995224;28;20633;-92
2022/12/25 17:14:34;;;;;;;122.47;113.03;;;7.10;96.40;;;;;;4999193;28;20203;-93
2022/12/25 18:35:21;;;;;;;104.37;96.53;;;6.80;96.60;;;;;;3840527;23;20233;-93
2022/12/25 18:37:47;;;;;;;106.40;98.87;;;6.80;96.60;;;;;;4990508;28;20177;-91
2022/12/25 18:40:15;;;;;;;107.17;98.90;;;6.80;96.60;;;;;;4992267;28;20539;-93
2022/12/25 18:42:42;;;;;;;105.03;97.17;;;6.70;96.60;;;;;;4985606;28;20186;-92
2022/12/25 18:45:14;;;;;;;105.70;97.87;;;6.80;96.70;;;;;;4989228;28;20202;-92
2022/12/25 18:47:40;;;;;;;106.23;98.47;;;6.80;96.60;;;;;;4991413;28;20190;-91
2022/12/25 18:50:07;;;;;;;110.80;102.73;;;6.80;96.70;;;;;;4991055;28;20240;-92
2022/12/25 18:52:35;;;;;;;108.53;100.30;;;6.80;96.70;;;;;;4990810;28;20232;-92
2022/12/25 18:55:00;;;;;;;108.83;100.93;;;6.80;96.70;;;;;;4988242;28;20198;-93
2022/12/25 18:57:35;;;;;;;107.00;99.27;;;6.80;96.70;;;;;;4995764;28;20196;-90
2022/12/25 19:00:27;;;;;;;112.47;104.47;;;6.70;96.70;;;;;;5001439;28;20189;-91
2022/12/25 19:02:57;;;;;;;104.10;97.13;;;6.80;96.70;;;;;;5000456;28;20194;-92
2022/12/25 19:05:23;;;;;;;104.47;97.13;;;6.80;96.70;;;;;;5002726;28;20187;-93
2022/12/25 19:07:52;;;;;;;107.43;99.40;;;6.80;96.70;;;;;;4997029;28;20242;-92
2022/12/25 19:10:17;;;;;;;102.90;95.37;;;6.80;96.70;;;;;;4995083;28;20209;-92
2022/12/25 19:12:43;;;;;;;104.63;96.83;;;6.80;96.70;;;;;;5002830;28;20225;-90
2022/12/25 19:15:09;;;;;;;105.67;98.03;;;6.80;96.70;;;;;;5001652;28;20178;-92
2022/12/25 19:17:35;;;;;;;105.30;97.63;;;6.80;96.70;;;;;;5019055;28;20158;-90
2022/12/25 19:20:00;;;;;;;107.13;99.53;;;6.80;96.70;;;;;;5000029;28;20189;-92
2022/12/25 19:22:26;;;;;;;111.27;103.00;;;6.80;96.70;;;;;;5000192;28;20178;-92
2022/12/25 19:24:52;;;;;;;107.60;99.77;;;6.80;96.70;;;;;;4999278;28;20197;-90
2022/12/25 19:27:17;;;;;;;111.83;102.37;;;6.80;96.70;;;;;;5001860;28;20166;-91
2022/12/25 19:29:43;;;;;;;113.53;105.30;;;6.80;96.70;;;;;;5001927;28;20222;-91
2022/12/25 19:32:08;;;;;;;114.23;105.77;;;6.70;96.70;;;;;;5002149;28;20162;-92
2022/12/25 19:34:40;;;;;;;117.83;108.67;;;6.70;96.70;;;;;;5002280;28;20224;-93
2022/12/25 19:37:09;;;;;;;113.80;105.47;;;6.70;96.70;;;;;;5001275;28;20170;-92
2022/12/25 19:39:35;;;;;;;113.87;105.33;;;6.70;96.70;;;;;;5002050;28;20209;-92
2022/12/25 19:42:00;;;;;;;115.47;106.67;;;6.70;96.70;;;;;;5001461;28;20190;-92
2022/12/25 19:44:26;;;;;;;117.23;108.27;;;6.70;96.70;;;;;;5001026;28;20209;-91
2022/12/25 19:46:52;;;;;;;119.03;110.10;;;6.70;96.70;;;;;;5002481;28;20201;-91
2022/12/25 19:49:18;;;;;;;116.33;107.83;;;6.70;96.80;;;;;;5002292;28;20194;-91
2022/12/25 19:51:47;;;;;;;117.27;108.83;;;6.70;96.80;;;;;;5002104;28;20157;-92
2022/12/25 19:54:15;;;;;;;116.57;108.43;;;6.70;96.80;;;;;;5001946;28;20208;-90
2022/12/25 19:56:42;;;;;;;115.90;107.17;;;6.70;96.80;;;;;;5064965;22;20293;-93
2022/12/25 19:59:09;;;;;;;118.83;110.20;;;6.70;96.80;;;;;;5037347;28;20190;-93
2022/12/25 20:01:38;;;;;;;111.87;104.00;;;6.70;96.80;;;;;;5037923;28;20176;-93
2022/12/25 20:04:08;;;;;;;111.07;103.00;;;6.70;96.80;;;;;;5035794;28;20282;-93
2022/12/25 20:06:36;;;;;;;110.00;102.17;;;6.70;96.80;;;;;;5030917;28;20193;-93
2022/12/25 20:09:06;;;;;;;127.93;118.88;;;6.70;96.80;;;;;;5030615;28;20423;-92
2022/12/25 20:11:43;;;;;;;127.77;119.20;;;6.70;96.80;;;;;;5037814;28;20237;-92
2022/12/25 20:14:18;;;;;;;128.67;119.57;;;6.80;96.80;;;;;;5036399;28;20260;-93
2022/12/25 20:16:43;;;;;;;122.20;113.53;;;6.70;96.80;;;;;;5037828;28;20180;-92
2022/12/25 20:19:12;;;;;;;120.30;112.07;;;6.70;96.80;;;;;;5037081;28;20261;-91
2022/12/25 20:24:24;;;;;;;117.53;108.67;;;6.70;96.80;;;;;;3004021;22;20264;-92
2022/12/25 20:44:55;;;;;;;124.23;115.83;;;6.70;96.90;;;;;;4989042;28;20222;-93
2022/12/25 20:47:20;;;;;;;126.67;118.27;;;6.70;96.90;;;;;;4989459;28;20185;-92
2022/12/25 20:49:46;;;;;;;129.97;121.47;;;6.70;96.90;;;;;;4991215;28;20194;-93
2022/12/25 20:52:11;;;;;;;136.63;126.07;;;6.70;96.90;;;;;;4990131;28;20187;-91
2022/12/25 20:54:37;;;;;;;142.23;132.03;;;6.70;96.90;;;;;;4990277;28;20198;-93
2022/12/25 20:57:08;;;;;;;148.77;138.13;;;6.60;96.90;;;;;;4997338;28;20194;-92
2022/12/25 20:59:42;;;;;;;145.93;136.37;;;6.60;96.90;;;;;;5001293;28;20159;-93
2022/12/25 21:02:10;;;;;;;135.83;127.07;;;6.60;96.90;;;;;;4994043;28;20650;-92
2022/12/25 21:04:36;;;;;;;140.37;131.57;;;6.60;96.90;;;;;;4987991;28;20205;-92
2022/12/25 21:07:01;;;;;;;145.07;135.43;;;6.70;96.90;;;;;;4990860;28;20221;-93
2022/12/25 21:09:27;;;;;;;145.00;135.60;;;6.60;96.90;;;;;;5001555;28;20281;-93
2022/12/25 21:11:53;;;;;;;152.50;140.87;;;6.70;96.90;;;;;;4996759;28;20179;-93
2022/12/25 21:14:18;;;;;;;151.83;142.13;;;6.70;96.90;;;;;;4995960;28;20234;-93
2022/12/25 21:16:44;;;;;;;154.17;144.03;;;6.70;96.90;;;;;;4997527;28;20179;-93
2022/12/25 21:19:10;;;;;;;153.20;143.20;;;6.70;96.90;;;;;;4999023;28;20174;-92
2022/12/25 21:21:41;;;;;;;161.33;151.23;;;6.70;96.90;;;;;;4995390;28;20174;-93
2022/12/25 21:24:07;;;;;;;165.33;155.23;;;6.60;96.90;;;;;;4993746;28;20199;-91
2022/12/25 21:26:33;;;;;;;166.77;156.37;;;6.70;96.90;;;;;;4999904;28;20167;-93
2022/12/25 21:29:00;;;;;;;170.00;159.60;;;6.70;97.00;;;;;;4994190;28;20274;-93
2022/12/25 21:31:27;;;;;;;171.77;161.03;;;6.70;96.90;;;;;;4992349;28;20179;-92
2022/12/25 21:33:54;;;;;;;178.17;167.40;;;6.70;96.90;;;;;;4996879;28;20203;-93
2022/12/25 21:36:28;;;;;;;179.63;168.10;;;6.70;97.00;;;;;;4996114;28;20182;-93
2022/12/25 21:38:59;;;;;;;188.47;176.17;;;6.70;96.90;;;;;;4994687;28;20182;-92
2022/12/25 21:41:26;;;;;;;186.47;175.53;;;6.60;96.90;;;;;;4984629;28;20175;-92
2022/12/25 21:43:54;;;;;;;202.73;190.23;;;6.60;97.00;;;;;;5000661;28;20187;-91
2022/12/25 21:46:21;;;;;;;199.60;188.07;;;6.60;97.00;;;;;;5000955;28;20178;-93
2022/12/25 21:48:47;;;;;;;197.63;186.07;;;6.60;97.00;;;;;;5000352;28;20230;-92
2022/12/25 21:54:02;;;;;;;201.17;189.30;;;6.60;97.00;;;;;;4999552;28;20182;-93
2022/12/25 21:56:32;;;;;;;207.20;195.07;;;6.60;97.00;;;;;;5000721;28;20190;-92
2022/12/25 21:58:59;;;;;;;203.13;191.07;;;6.70;97.00;;;;;;5000432;28;20179;-93
2022/12/25 22:01:26;;;;;;;194.70;180.73;;;6.70;97.00;;;;;;4998538;28;20179;-92
2022/12/25 22:03:56;;;;;;;215.43;192.37;;;6.70;97.00;;;;;;4993963;28;20189;-93
2022/12/25 22:15:05;;;;;;;235.53;215.67;;;6.70;97.00;;;;;;5137307;22;20228;-91
2022/12/25 22:38:11;;;;;;;283.73;203.93;;;6.50;97.00;;;;;;5053599;28;20206;-91
2022/12/25 22:40:37;;;;;;;344.87;202.50;;;6.50;97.00;;;;;;5045875;28;20263;-92
2022/12/25 22:43:02;;;;;;;313.77;214.80;;;6.50;97.00;;;;;;5028577;28;20271;-90
2022/12/25 22:45:28;;;;;;;379.03;216.97;;;6.50;97.00;;;;;;5029302;28;20193;-91
2022/12/25 22:47:53;;;;;;;230.07;208.47;;;6.40;97.00;;;;;;5004259;28;20185;-92
2022/12/25 22:50:19;;;;;;;243.97;209.23;;;6.50;97.00;;;;;;5008005;28;20268;-92
2022/12/25 22:52:45;;;;;;;248.10;214.40;;;6.50;97.10;;;;;;5006898;28;20268;-92
2022/12/25 22:55:14;;;;;;;250.70;223.37;;;6.50;97.00;;;;;;5007941;28;20202;-92
2022/12/25 22:57:49;;;;;;;262.17;233.63;;;6.50;97.10;;;;;;5019085;28;20169;-91
2022/12/25 23:00:20;;;;;;;264.37;235.80;;;6.50;97.10;;;;;;5021560;28;20189;-90
2022/12/25 23:02:46;;;;;;;266.27;237.43;;;6.40;97.00;;;;;;5022381;28;20160;-90
2022/12/25 23:05:11;;;;;;;264.87;220.27;;;6.40;97.00;;;;;;5022170;28;20217;-90
2022/12/25 23:07:37;;;;;;;232.70;215.20;;;6.30;97.00;;;;;;5017626;28;20265;-91
2022/12/25 23:10:04;;;;;;;224.77;210.20;;;6.40;97.10;;;;;;5014573;28;20207;-92
2022/12/25 23:15:15;;;;;;;226.30;205.63;;;6.40;97.10;;;;;;5033391;28;20216;-92
2022/12/25 23:26:13;;;;;;;293.63;178.03;;;6.30;97.10;;;;;;5038749;28;20218;-91
2022/12/25 23:31:28;;;;;;;223.17;152.87;;;6.30;97.10;;;;;;5036979;28;20180;-92
2022/12/25 23:33:57;;;;;;;170.20;157.13;;;6.30;97.10;;;;;;5021157;28;20189;-91
2022/12/25 23:36:23;;;;;;;180.57;163.30;;;6.30;97.20;;;;;;5021380;28;20185;-90
2022/12/25 23:38:48;;;;;;;211.93;165.67;;;6.30;97.20;;;;;;5033945;28;20169;-91
2022/12/25 23:41:14;;;;;;;236.60;153.63;;;6.30;97.20;;;;;;5036361;28;20175;-89